sensor_id;sensor_type;location;lat;lon;timestamp;P1;durP1;ratioP1;P2;durP2;ratioP2
26951;SDS011;14507;52.418;13.398;2024-03-22T00:00:09;24.08;;;14.43;;
26951;SDS011;14507;52.418;13.398;2024-03-22T00:02:36;22.42;;;13.63;;
26951;SDS011;14507;52.418;13.398;2024-03-22T00:05:03;21.13;;;13.63;;
26951;SDS011;14507;52.418;13.398;2024-03-22T00:07:29;25.52;;;13.98;;
26951;SDS011;14507;52.418;13.398;2024-03-22T00:09:54;25.90;;;15.40;;
26951;SDS011;14507;52.418;13.398;2024-03-22T00:12:20;27.02;;;15.45;;
26951;SDS011;14507;52.418;13.398;2024-03-22T00:14:46;26.48;;;15.93;;
26951;SDS011;14507;52.418;13.398;2024-03-22T00:17:11;21.05;;;13.52;;
26951;SDS011;14507;52.418;13.398;2024-03-22T00:19:37;24.20;;;14.90;;
26951;SDS011;14507;52.418;13.398;2024-03-22T00:22:03;21.65;;;14.13;;
26951;SDS011;14507;52.418;13.398;2024-03-22T00:24:28;24.50;;;14.30;;
26951;SDS011;14507;52.418;13.398;2024-03-22T00:26:54;24.80;;;14.13;;
26951;SDS011;14507;52.418;13.398;2024-03-22T00:29:20;22.80;;;13.85;;
26951;SDS011;14507;52.418;13.398;2024-03-22T00:31:46;23.10;;;14.43;;
26951;SDS011;14507;52.418;13.398;2024-03-22T00:34:12;24.55;;;15.32;;
26951;SDS011;14507;52.418;13.398;2024-03-22T00:36:38;22.27;;;14.80;;
26951;SDS011;14507;52.418;13.398;2024-03-22T00:39:03;24.63;;;15.18;;
26951;SDS011;14507;52.418;13.398;2024-03-22T00:41:29;25.30;;;14.60;;
26951;SDS011;14507;52.418;13.398;2024-03-22T00:43:54;23.17;;;14.52;;
26951;SDS011;14507;52.418;13.398;2024-03-22T00:46:20;28.10;;;15.38;;
26951;SDS011;14507;52.418;13.398;2024-03-22T00:48:46;24.55;;;14.80;;
26951;SDS011;14507;52.418;13.398;2024-03-22T00:51:11;25.95;;;14.65;;
26951;SDS011;14507;52.418;13.398;2024-03-22T00:53:37;25.00;;;14.43;;
26951;SDS011;14507;52.418;13.398;2024-03-22T00:56:03;25.58;;;14.85;;
26951;SDS011;14507;52.418;13.398;2024-03-22T00:58:29;27.42;;;15.88;;
26951;SDS011;14507;52.418;13.398;2024-03-22T01:00:55;23.23;;;14.68;;
26951;SDS011;14507;52.418;13.398;2024-03-22T01:03:21;24.35;;;15.07;;
26951;SDS011;14507;52.418;13.398;2024-03-22T01:05:47;27.70;;;15.80;;
26951;SDS011;14507;52.418;13.398;2024-03-22T01:08:12;25.40;;;15.02;;
26951;SDS011;14507;52.418;13.398;2024-03-22T01:10:38;25.70;;;15.15;;
26951;SDS011;14507;52.418;13.398;2024-03-22T01:13:04;25.83;;;15.57;;
26951;SDS011;14507;52.418;13.398;2024-03-22T01:15:31;26.88;;;15.52;;
26951;SDS011;14507;52.418;13.398;2024-03-22T01:17:56;24.80;;;15.45;;
26951;SDS011;14507;52.418;13.398;2024-03-22T01:20:22;27.27;;;15.98;;
26951;SDS011;14507;52.418;13.398;2024-03-22T01:22:48;27.35;;;15.68;;
26951;SDS011;14507;52.418;13.398;2024-03-22T01:25:14;26.38;;;15.13;;
26951;SDS011;14507;52.418;13.398;2024-03-22T01:27:40;27.90;;;15.45;;
26951;SDS011;14507;52.418;13.398;2024-03-22T01:30:05;24.95;;;14.98;;
26951;SDS011;14507;52.418;13.398;2024-03-22T01:32:31;26.40;;;15.35;;
26951;SDS011;14507;52.418;13.398;2024-03-22T01:34:57;27.10;;;15.48;;
26951;SDS011;14507;52.418;13.398;2024-03-22T01:37:23;28.05;;;15.75;;
26951;SDS011;14507;52.418;13.398;2024-03-22T01:39:49;26.20;;;15.50;;
26951;SDS011;14507;52.418;13.398;2024-03-22T01:42:14;28.33;;;16.20;;
26951;SDS011;14507;52.418;13.398;2024-03-22T01:44:40;28.73;;;16.27;;
26951;SDS011;14507;52.418;13.398;2024-03-22T01:47:06;30.88;;;16.55;;
26951;SDS011;14507;52.418;13.398;2024-03-22T01:49:32;30.05;;;16.67;;
26951;SDS011;14507;52.418;13.398;2024-03-22T01:51:58;31.27;;;17.10;;
26951;SDS011;14507;52.418;13.398;2024-03-22T01:54:24;30.42;;;16.65;;
26951;SDS011;14507;52.418;13.398;2024-03-22T01:56:49;29.45;;;16.42;;
26951;SDS011;14507;52.418;13.398;2024-03-22T01:59:15;28.13;;;16.02;;
26951;SDS011;14507;52.418;13.398;2024-03-22T02:01:41;34.97;;;17.77;;
26951;SDS011;14507;52.418;13.398;2024-03-22T02:04:07;28.95;;;16.15;;
26951;SDS011;14507;52.418;13.398;2024-03-22T02:06:33;30.70;;;16.48;;
26951;SDS011;14507;52.418;13.398;2024-03-22T02:08:59;32.30;;;17.95;;
26951;SDS011;14507;52.418;13.398;2024-03-22T02:11:25;29.88;;;16.65;;
26951;SDS011;14507;52.418;13.398;2024-03-22T02:13:51;33.10;;;17.50;;
26951;SDS011;14507;52.418;13.398;2024-03-22T02:16:17;30.83;;;16.38;;
26951;SDS011;14507;52.418;13.398;2024-03-22T02:18:43;30.63;;;16.70;;
26951;SDS011;14507;52.418;13.398;2024-03-22T02:21:09;31.90;;;17.48;;
26951;SDS011;14507;52.418;13.398;2024-03-22T02:23:36;33.35;;;17.90;;
26951;SDS011;14507;52.418;13.398;2024-03-22T02:26:02;32.03;;;17.77;;
26951;SDS011;14507;52.418;13.398;2024-03-22T02:28:29;31.33;;;17.23;;
26951;SDS011;14507;52.418;13.398;2024-03-22T02:30:57;33.38;;;17.27;;
26951;SDS011;14507;52.418;13.398;2024-03-22T02:33:22;34.40;;;18.08;;
26951;SDS011;14507;52.418;13.398;2024-03-22T02:35:49;32.85;;;17.55;;
26951;SDS011;14507;52.418;13.398;2024-03-22T02:38:15;32.63;;;17.50;;
26951;SDS011;14507;52.418;13.398;2024-03-22T02:40:42;35.90;;;16.60;;
26951;SDS011;14507;52.418;13.398;2024-03-22T02:45:35;30.80;;;16.73;;
26951;SDS011;14507;52.418;13.398;2024-03-22T02:48:01;30.33;;;15.40;;
26951;SDS011;14507;52.418;13.398;2024-03-22T02:50:26;31.63;;;16.70;;
26951;SDS011;14507;52.418;13.398;2024-03-22T02:52:52;30.42;;;17.05;;
26951;SDS011;14507;52.418;13.398;2024-03-22T02:55:17;36.15;;;17.15;;
26951;SDS011;14507;52.418;13.398;2024-03-22T02:57:43;31.17;;;16.80;;
26951;SDS011;14507;52.418;13.398;2024-03-22T03:00:09;31.20;;;16.45;;
26951;SDS011;14507;52.418;13.398;2024-03-22T03:02:35;33.83;;;16.60;;
26951;SDS011;14507;52.418;13.398;2024-03-22T03:05:01;31.52;;;16.63;;
26951;SDS011;14507;52.418;13.398;2024-03-22T03:07:27;31.40;;;16.52;;
26951;SDS011;14507;52.418;13.398;2024-03-22T03:09:53;30.13;;;16.00;;
26951;SDS011;14507;52.418;13.398;2024-03-22T03:12:19;36.50;;;16.85;;
26951;SDS011;14507;52.418;13.398;2024-03-22T03:14:44;30.85;;;16.67;;
26951;SDS011;14507;52.418;13.398;2024-03-22T03:17:10;29.95;;;15.32;;
26951;SDS011;14507;52.418;13.398;2024-03-22T03:19:36;30.92;;;15.95;;
26951;SDS011;14507;52.418;13.398;2024-03-22T03:22:01;31.08;;;16.05;;
26951;SDS011;14507;52.418;13.398;2024-03-22T03:24:27;28.23;;;15.30;;
26951;SDS011;14507;52.418;13.398;2024-03-22T03:26:53;31.60;;;15.70;;
26951;SDS011;14507;52.418;13.398;2024-03-22T03:29:19;28.65;;;15.60;;
26951;SDS011;14507;52.418;13.398;2024-03-22T03:31:48;30.75;;;14.82;;
26951;SDS011;14507;52.418;13.398;2024-03-22T03:34:14;28.02;;;15.10;;
26951;SDS011;14507;52.418;13.398;2024-03-22T03:36:40;29.50;;;15.55;;
26951;SDS011;14507;52.418;13.398;2024-03-22T03:39:05;29.42;;;15.20;;
26951;SDS011;14507;52.418;13.398;2024-03-22T03:41:31;27.77;;;14.80;;
26951;SDS011;14507;52.418;13.398;2024-03-22T03:43:56;32.35;;;15.35;;
26951;SDS011;14507;52.418;13.398;2024-03-22T03:46:22;35.00;;;15.60;;
26951;SDS011;14507;52.418;13.398;2024-03-22T03:48:48;27.25;;;14.70;;
26951;SDS011;14507;52.418;13.398;2024-03-22T03:51:13;28.75;;;15.68;;
26951;SDS011;14507;52.418;13.398;2024-03-22T03:53:39;29.35;;;15.13;;
26951;SDS011;14507;52.418;13.398;2024-03-22T03:56:05;29.58;;;15.00;;
26951;SDS011;14507;52.418;13.398;2024-03-22T03:58:30;30.98;;;15.57;;
26951;SDS011;14507;52.418;13.398;2024-03-22T04:00:56;30.05;;;14.70;;
26951;SDS011;14507;52.418;13.398;2024-03-22T04:03:22;28.83;;;14.85;;
26951;SDS011;14507;52.418;13.398;2024-03-22T04:05:58;32.25;;;16.80;;
26951;SDS011;14507;52.418;13.398;2024-03-22T04:08:24;31.98;;;14.52;;
26951;SDS011;14507;52.418;13.398;2024-03-22T04:10:54;29.48;;;14.98;;
26951;SDS011;14507;52.418;13.398;2024-03-22T04:13:23;30.63;;;15.68;;
26951;SDS011;14507;52.418;13.398;2024-03-22T04:15:50;27.40;;;14.30;;
26951;SDS011;14507;52.418;13.398;2024-03-22T04:18:15;29.70;;;14.38;;
26951;SDS011;14507;52.418;13.398;2024-03-22T04:20:41;33.47;;;15.32;;
26951;SDS011;14507;52.418;13.398;2024-03-22T04:23:08;31.13;;;15.73;;
26951;SDS011;14507;52.418;13.398;2024-03-22T04:25:34;27.60;;;14.43;;
26951;SDS011;14507;52.418;13.398;2024-03-22T04:28:00;29.08;;;14.90;;
26951;SDS011;14507;52.418;13.398;2024-03-22T04:30:25;28.02;;;14.52;;
26951;SDS011;14507;52.418;13.398;2024-03-22T04:32:51;28.83;;;15.73;;
26951;SDS011;14507;52.418;13.398;2024-03-22T04:35:16;30.50;;;16.02;;
26951;SDS011;14507;52.418;13.398;2024-03-22T04:37:42;32.70;;;14.90;;
26951;SDS011;14507;52.418;13.398;2024-03-22T04:40:08;31.77;;;16.50;;
26951;SDS011;14507;52.418;13.398;2024-03-22T04:42:35;30.35;;;15.18;;
26951;SDS011;14507;52.418;13.398;2024-03-22T04:45:00;35.10;;;16.27;;
26951;SDS011;14507;52.418;13.398;2024-03-22T04:47:26;30.50;;;15.27;;
26951;SDS011;14507;52.418;13.398;2024-03-22T04:49:52;31.15;;;15.65;;
26951;SDS011;14507;52.418;13.398;2024-03-22T04:52:17;31.13;;;14.82;;
26951;SDS011;14507;52.418;13.398;2024-03-22T04:54:43;32.53;;;15.60;;
26951;SDS011;14507;52.418;13.398;2024-03-22T04:57:09;33.30;;;16.23;;
26951;SDS011;14507;52.418;13.398;2024-03-22T04:59:34;28.25;;;15.73;;
26951;SDS011;14507;52.418;13.398;2024-03-22T05:02:00;35.95;;;16.75;;
26951;SDS011;14507;52.418;13.398;2024-03-22T05:04:25;29.92;;;15.38;;
26951;SDS011;14507;52.418;13.398;2024-03-22T05:06:51;33.58;;;15.35;;
26951;SDS011;14507;52.418;13.398;2024-03-22T05:09:16;33.15;;;15.45;;
26951;SDS011;14507;52.418;13.398;2024-03-22T05:11:42;31.83;;;15.85;;
26951;SDS011;14507;52.418;13.398;2024-03-22T05:14:08;31.63;;;15.98;;
26951;SDS011;14507;52.418;13.398;2024-03-22T05:16:33;32.03;;;15.05;;
26951;SDS011;14507;52.418;13.398;2024-03-22T05:18:59;30.23;;;15.35;;
26951;SDS011;14507;52.418;13.398;2024-03-22T05:21:24;30.65;;;15.20;;
26951;SDS011;14507;52.418;13.398;2024-03-22T05:23:50;30.65;;;15.43;;
26951;SDS011;14507;52.418;13.398;2024-03-22T05:26:16;33.17;;;14.98;;
26951;SDS011;14507;52.418;13.398;2024-03-22T05:28:44;31.10;;;15.60;;
26951;SDS011;14507;52.418;13.398;2024-03-22T05:31:09;28.27;;;14.25;;
26951;SDS011;14507;52.418;13.398;2024-03-22T05:33:35;28.38;;;14.48;;
26951;SDS011;14507;52.418;13.398;2024-03-22T05:36:00;27.48;;;14.65;;
26951;SDS011;14507;52.418;13.398;2024-03-22T05:38:26;27.48;;;14.43;;
26951;SDS011;14507;52.418;13.398;2024-03-22T05:40:52;27.27;;;13.60;;
26951;SDS011;14507;52.418;13.398;2024-03-22T05:43:17;30.42;;;14.10;;
26951;SDS011;14507;52.418;13.398;2024-03-22T05:45:43;28.75;;;14.00;;
26951;SDS011;14507;52.418;13.398;2024-03-22T05:48:08;31.40;;;14.02;;
26951;SDS011;14507;52.418;13.398;2024-03-22T05:50:34;28.70;;;14.65;;
26951;SDS011;14507;52.418;13.398;2024-03-22T05:53:00;28.27;;;13.88;;
26951;SDS011;14507;52.418;13.398;2024-03-22T05:55:25;25.67;;;13.73;;
26951;SDS011;14507;52.418;13.398;2024-03-22T05:57:52;28.23;;;13.88;;
26951;SDS011;14507;52.418;13.398;2024-03-22T06:00:18;27.48;;;14.07;;
26951;SDS011;14507;52.418;13.398;2024-03-22T06:02:43;26.33;;;13.63;;
26951;SDS011;14507;52.418;13.398;2024-03-22T06:05:09;27.10;;;13.77;;
26951;SDS011;14507;52.418;13.398;2024-03-22T06:07:35;28.67;;;14.77;;
26951;SDS011;14507;52.418;13.398;2024-03-22T06:10:07;27.48;;;14.68;;
26951;SDS011;14507;52.418;13.398;2024-03-22T06:12:34;25.25;;;13.38;;
26951;SDS011;14507;52.418;13.398;2024-03-22T06:15:00;27.63;;;14.38;;
26951;SDS011;14507;52.418;13.398;2024-03-22T06:17:26;27.25;;;14.02;;
26951;SDS011;14507;52.418;13.398;2024-03-22T06:19:52;28.48;;;14.88;;
26951;SDS011;14507;52.418;13.398;2024-03-22T06:22:17;26.38;;;14.60;;
26951;SDS011;14507;52.418;13.398;2024-03-22T06:24:44;28.23;;;13.63;;
26951;SDS011;14507;52.418;13.398;2024-03-22T06:27:10;30.75;;;14.38;;
26951;SDS011;14507;52.418;13.398;2024-03-22T06:29:35;32.30;;;15.07;;
26951;SDS011;14507;52.418;13.398;2024-03-22T06:32:01;28.83;;;14.60;;
26951;SDS011;14507;52.418;13.398;2024-03-22T06:34:26;29.92;;;13.95;;
26951;SDS011;14507;52.418;13.398;2024-03-22T06:36:52;28.40;;;14.60;;
26951;SDS011;14507;52.418;13.398;2024-03-22T06:39:17;30.10;;;14.50;;
26951;SDS011;14507;52.418;13.398;2024-03-22T06:41:44;30.67;;;14.73;;
26951;SDS011;14507;52.418;13.398;2024-03-22T06:44:10;34.95;;;15.68;;
26951;SDS011;14507;52.418;13.398;2024-03-22T06:46:39;29.08;;;14.95;;
26951;SDS011;14507;52.418;13.398;2024-03-22T06:49:05;28.63;;;14.35;;
26951;SDS011;14507;52.418;13.398;2024-03-22T06:51:30;31.48;;;15.35;;
26951;SDS011;14507;52.418;13.398;2024-03-22T06:53:56;31.02;;;15.75;;
26951;SDS011;14507;52.418;13.398;2024-03-22T06:56:22;28.83;;;14.60;;
26951;SDS011;14507;52.418;13.398;2024-03-22T06:58:47;30.58;;;15.27;;
26951;SDS011;14507;52.418;13.398;2024-03-22T07:01:13;26.48;;;15.30;;
26951;SDS011;14507;52.418;13.398;2024-03-22T07:03:39;27.17;;;14.93;;
26951;SDS011;14507;52.418;13.398;2024-03-22T07:06:05;36.33;;;17.40;;
26951;SDS011;14507;52.418;13.398;2024-03-22T07:10:59;28.15;;;14.75;;
26951;SDS011;14507;52.418;13.398;2024-03-22T07:13:24;33.63;;;16.90;;
26951;SDS011;14507;52.418;13.398;2024-03-22T07:15:50;33.40;;;17.27;;
26951;SDS011;14507;52.418;13.398;2024-03-22T07:18:15;32.47;;;17.27;;
26951;SDS011;14507;52.418;13.398;2024-03-22T07:20:41;31.17;;;16.90;;
26951;SDS011;14507;52.418;13.398;2024-03-22T07:23:07;35.15;;;17.75;;
26951;SDS011;14507;52.418;13.398;2024-03-22T07:25:33;31.55;;;16.52;;
26951;SDS011;14507;52.418;13.398;2024-03-22T07:27:59;31.23;;;16.40;;
26951;SDS011;14507;52.418;13.398;2024-03-22T07:30:25;31.60;;;17.77;;
26951;SDS011;14507;52.418;13.398;2024-03-22T07:32:51;35.40;;;17.70;;
26951;SDS011;14507;52.418;13.398;2024-03-22T07:35:17;36.75;;;19.13;;
26951;SDS011;14507;52.418;13.398;2024-03-22T07:37:43;35.40;;;17.77;;
26951;SDS011;14507;52.418;13.398;2024-03-22T07:40:09;39.03;;;19.63;;
26951;SDS011;14507;52.418;13.398;2024-03-22T07:42:35;32.15;;;17.60;;
26951;SDS011;14507;52.418;13.398;2024-03-22T07:45:01;37.20;;;18.27;;
26951;SDS011;14507;52.418;13.398;2024-03-22T07:47:27;32.45;;;17.63;;
26951;SDS011;14507;52.418;13.398;2024-03-22T07:49:53;34.80;;;17.63;;
26951;SDS011;14507;52.418;13.398;2024-03-22T07:52:19;35.85;;;17.45;;
26951;SDS011;14507;52.418;13.398;2024-03-22T07:54:45;38.47;;;18.83;;
26951;SDS011;14507;52.418;13.398;2024-03-22T07:57:10;37.03;;;19.23;;
26951;SDS011;14507;52.418;13.398;2024-03-22T07:59:36;34.05;;;16.73;;
26951;SDS011;14507;52.418;13.398;2024-03-22T08:02:02;32.83;;;17.58;;
26951;SDS011;14507;52.418;13.398;2024-03-22T08:04:28;35.25;;;18.33;;
26951;SDS011;14507;52.418;13.398;2024-03-22T08:06:54;39.55;;;19.05;;
26951;SDS011;14507;52.418;13.398;2024-03-22T08:09:19;35.40;;;19.23;;
26951;SDS011;14507;52.418;13.398;2024-03-22T08:11:45;33.35;;;18.55;;
26951;SDS011;14507;52.418;13.398;2024-03-22T08:14:11;30.40;;;17.83;;
26951;SDS011;14507;52.418;13.398;2024-03-22T08:16:39;36.95;;;18.25;;
26951;SDS011;14507;52.418;13.398;2024-03-22T08:19:07;31.85;;;17.45;;
26951;SDS011;14507;52.418;13.398;2024-03-22T08:21:32;31.35;;;17.30;;
26951;SDS011;14507;52.418;13.398;2024-03-22T08:23:59;37.05;;;18.75;;
26951;SDS011;14507;52.418;13.398;2024-03-22T08:26:25;33.17;;;18.48;;
26951;SDS011;14507;52.418;13.398;2024-03-22T08:28:50;34.15;;;18.73;;
26951;SDS011;14507;52.418;13.398;2024-03-22T08:31:16;39.42;;;18.98;;
26951;SDS011;14507;52.418;13.398;2024-03-22T08:33:42;37.67;;;18.40;;
26951;SDS011;14507;52.418;13.398;2024-03-22T08:36:08;33.25;;;18.02;;
26951;SDS011;14507;52.418;13.398;2024-03-22T08:38:33;36.78;;;18.50;;
26951;SDS011;14507;52.418;13.398;2024-03-22T08:40:59;34.88;;;17.95;;
26951;SDS011;14507;52.418;13.398;2024-03-22T08:43:25;33.47;;;17.50;;
26951;SDS011;14507;52.418;13.398;2024-03-22T08:45:52;36.00;;;17.90;;
26951;SDS011;14507;52.418;13.398;2024-03-22T08:48:18;37.10;;;18.88;;
26951;SDS011;14507;52.418;13.398;2024-03-22T08:50:44;39.25;;;19.90;;
26951;SDS011;14507;52.418;13.398;2024-03-22T08:53:10;32.80;;;18.17;;
26951;SDS011;14507;52.418;13.398;2024-03-22T08:55:36;34.67;;;17.25;;
26951;SDS011;14507;52.418;13.398;2024-03-22T08:58:01;32.38;;;18.10;;
26951;SDS011;14507;52.418;13.398;2024-03-22T09:00:28;37.05;;;18.77;;
26951;SDS011;14507;52.418;13.398;2024-03-22T09:02:54;37.63;;;18.10;;
26951;SDS011;14507;52.418;13.398;2024-03-22T09:05:20;32.17;;;18.23;;
26951;SDS011;14507;52.418;13.398;2024-03-22T09:07:46;33.00;;;17.63;;
26951;SDS011;14507;52.418;13.398;2024-03-22T09:10:12;30.65;;;17.15;;
26951;SDS011;14507;52.418;13.398;2024-03-22T09:12:37;36.45;;;18.65;;
26951;SDS011;14507;52.418;13.398;2024-03-22T09:15:03;33.40;;;17.15;;
26951;SDS011;14507;52.418;13.398;2024-03-22T09:17:29;28.38;;;16.27;;
26951;SDS011;14507;52.418;13.398;2024-03-22T09:19:54;31.42;;;17.27;;
26951;SDS011;14507;52.418;13.398;2024-03-22T09:22:20;36.60;;;18.23;;
26951;SDS011;14507;52.418;13.398;2024-03-22T09:24:45;35.17;;;18.60;;
26951;SDS011;14507;52.418;13.398;2024-03-22T09:27:11;31.25;;;17.17;;
26951;SDS011;14507;52.418;13.398;2024-03-22T09:29:37;31.10;;;17.95;;
26951;SDS011;14507;52.418;13.398;2024-03-22T09:32:03;29.83;;;17.13;;
26951;SDS011;14507;52.418;13.398;2024-03-22T09:34:29;28.50;;;16.08;;
26951;SDS011;14507;52.418;13.398;2024-03-22T09:36:55;29.40;;;16.58;;
26951;SDS011;14507;52.418;13.398;2024-03-22T09:39:21;31.10;;;17.38;;
26951;SDS011;14507;52.418;13.398;2024-03-22T09:41:47;37.00;;;18.30;;
26951;SDS011;14507;52.418;13.398;2024-03-22T09:44:15;32.67;;;17.02;;
26951;SDS011;14507;52.418;13.398;2024-03-22T09:46:44;29.08;;;17.05;;
26951;SDS011;14507;52.418;13.398;2024-03-22T09:49:11;27.75;;;16.45;;
26951;SDS011;14507;52.418;13.398;2024-03-22T09:51:37;32.88;;;18.02;;
26951;SDS011;14507;52.418;13.398;2024-03-22T09:54:04;31.23;;;17.17;;
26951;SDS011;14507;52.418;13.398;2024-03-22T09:56:30;29.98;;;16.80;;
26951;SDS011;14507;52.418;13.398;2024-03-22T09:58:59;29.77;;;15.73;;
26951;SDS011;14507;52.418;13.398;2024-03-22T10:01:25;30.52;;;16.10;;
26951;SDS011;14507;52.418;13.398;2024-03-22T10:03:51;27.98;;;15.50;;
26951;SDS011;14507;52.418;13.398;2024-03-22T10:06:17;29.52;;;15.38;;
26951;SDS011;14507;52.418;13.398;2024-03-22T10:08:44;31.67;;;16.15;;
26951;SDS011;14507;52.418;13.398;2024-03-22T10:11:10;29.88;;;15.20;;
26951;SDS011;14507;52.418;13.398;2024-03-22T10:13:37;29.08;;;15.27;;
26951;SDS011;14507;52.418;13.398;2024-03-22T10:16:03;29.08;;;16.58;;
26951;SDS011;14507;52.418;13.398;2024-03-22T10:18:32;27.63;;;15.80;;
26951;SDS011;14507;52.418;13.398;2024-03-22T10:20:59;27.65;;;15.93;;
26951;SDS011;14507;52.418;13.398;2024-03-22T10:23:29;27.70;;;15.40;;
26951;SDS011;14507;52.418;13.398;2024-03-22T10:25:58;28.45;;;16.15;;
26951;SDS011;14507;52.418;13.398;2024-03-22T10:28:25;31.80;;;16.25;;
26951;SDS011;14507;52.418;13.398;2024-03-22T10:30:51;28.88;;;16.25;;
26951;SDS011;14507;52.418;13.398;2024-03-22T10:33:21;28.90;;;16.13;;
26951;SDS011;14507;52.418;13.398;2024-03-22T10:35:51;29.20;;;16.13;;
26951;SDS011;14507;52.418;13.398;2024-03-22T10:38:19;27.08;;;15.52;;
26951;SDS011;14507;52.418;13.398;2024-03-22T10:40:45;27.60;;;15.57;;
26951;SDS011;14507;52.418;13.398;2024-03-22T10:43:15;30.45;;;16.60;;
26951;SDS011;14507;52.418;13.398;2024-03-22T10:45:41;29.30;;;15.88;;
26951;SDS011;14507;52.418;13.398;2024-03-22T10:48:11;28.67;;;16.08;;
26951;SDS011;14507;52.418;13.398;2024-03-22T10:50:41;27.80;;;15.75;;
26951;SDS011;14507;52.418;13.398;2024-03-22T10:53:12;31.08;;;15.30;;
26951;SDS011;14507;52.418;13.398;2024-03-22T10:55:44;29.40;;;15.63;;
26951;SDS011;14507;52.418;13.398;2024-03-22T10:58:17;26.98;;;15.07;;
26951;SDS011;14507;52.418;13.398;2024-03-22T11:00:45;27.85;;;14.85;;
26951;SDS011;14507;52.418;13.398;2024-03-22T11:03:12;26.20;;;14.20;;
26951;SDS011;14507;52.418;13.398;2024-03-22T11:05:48;27.55;;;14.93;;
26951;SDS011;14507;52.418;13.398;2024-03-22T11:08:25;27.30;;;15.07;;
26951;SDS011;14507;52.418;13.398;2024-03-22T11:10:51;27.20;;;15.15;;
26951;SDS011;14507;52.418;13.398;2024-03-22T11:13:17;28.45;;;15.05;;
26951;SDS011;14507;52.418;13.398;2024-03-22T11:15:46;30.20;;;15.13;;
26951;SDS011;14507;52.418;13.398;2024-03-22T11:18:13;28.88;;;15.35;;
26951;SDS011;14507;52.418;13.398;2024-03-22T11:20:38;30.48;;;16.60;;
26951;SDS011;14507;52.418;13.398;2024-03-22T11:23:04;27.17;;;14.05;;
26951;SDS011;14507;52.418;13.398;2024-03-22T11:25:33;32.58;;;15.32;;
26951;SDS011;14507;52.418;13.398;2024-03-22T11:28:00;31.50;;;15.27;;
26951;SDS011;14507;52.418;13.398;2024-03-22T11:30:30;28.67;;;15.35;;
26951;SDS011;14507;52.418;13.398;2024-03-22T11:32:57;30.90;;;15.50;;
26951;SDS011;14507;52.418;13.398;2024-03-22T11:35:26;29.20;;;15.27;;
26951;SDS011;14507;52.418;13.398;2024-03-22T11:37:51;28.65;;;14.57;;
26951;SDS011;14507;52.418;13.398;2024-03-22T11:40:17;29.15;;;14.93;;
26951;SDS011;14507;52.418;13.398;2024-03-22T11:42:46;31.02;;;15.20;;
26951;SDS011;14507;52.418;13.398;2024-03-22T11:45:14;30.17;;;15.60;;
26951;SDS011;14507;52.418;13.398;2024-03-22T11:47:42;28.63;;;14.45;;
26951;SDS011;14507;52.418;13.398;2024-03-22T11:50:09;29.80;;;15.60;;
26951;SDS011;14507;52.418;13.398;2024-03-22T11:52:38;26.73;;;15.32;;
26951;SDS011;14507;52.418;13.398;2024-03-22T11:55:10;30.73;;;14.93;;
26951;SDS011;14507;52.418;13.398;2024-03-22T11:57:35;28.30;;;15.35;;
26951;SDS011;14507;52.418;13.398;2024-03-22T12:00:02;27.80;;;14.95;;
26951;SDS011;14507;52.418;13.398;2024-03-22T12:02:31;27.73;;;14.27;;
26951;SDS011;14507;52.418;13.398;2024-03-22T12:04:57;35.65;;;16.35;;
26951;SDS011;14507;52.418;13.398;2024-03-22T12:07:23;31.40;;;16.60;;
26951;SDS011;14507;52.418;13.398;2024-03-22T12:09:49;32.40;;;15.77;;
26951;SDS011;14507;52.418;13.398;2024-03-22T12:12:14;32.78;;;16.48;;
26951;SDS011;14507;52.418;13.398;2024-03-22T12:14:40;31.38;;;16.92;;
26951;SDS011;14507;52.418;13.398;2024-03-22T12:17:06;31.77;;;16.92;;
26951;SDS011;14507;52.418;13.398;2024-03-22T12:19:32;33.40;;;18.38;;
26951;SDS011;14507;52.418;13.398;2024-03-22T12:21:58;37.75;;;18.05;;
26951;SDS011;14507;52.418;13.398;2024-03-22T12:24:25;34.13;;;17.73;;
26951;SDS011;14507;52.418;13.398;2024-03-22T12:26:52;37.47;;;18.60;;
26951;SDS011;14507;52.418;13.398;2024-03-22T12:29:18;34.75;;;17.88;;
26951;SDS011;14507;52.418;13.398;2024-03-22T12:31:44;36.97;;;18.55;;
26951;SDS011;14507;52.418;13.398;2024-03-22T12:34:10;37.88;;;19.45;;
26951;SDS011;14507;52.418;13.398;2024-03-22T12:36:35;34.67;;;18.45;;
26951;SDS011;14507;52.418;13.398;2024-03-22T12:39:01;35.90;;;17.48;;
26951;SDS011;14507;52.418;13.398;2024-03-22T12:41:28;39.97;;;20.23;;
26951;SDS011;14507;52.418;13.398;2024-03-22T12:43:57;36.78;;;19.27;;
26951;SDS011;14507;52.418;13.398;2024-03-22T12:46:22;35.50;;;19.13;;
26951;SDS011;14507;52.418;13.398;2024-03-22T12:48:48;35.97;;;17.30;;
26951;SDS011;14507;52.418;13.398;2024-03-22T12:51:14;37.60;;;17.92;;
26951;SDS011;14507;52.418;13.398;2024-03-22T12:53:40;34.03;;;18.17;;
26951;SDS011;14507;52.418;13.398;2024-03-22T12:56:05;34.50;;;17.02;;
26951;SDS011;14507;52.418;13.398;2024-03-22T12:58:31;31.33;;;16.88;;
26951;SDS011;14507;52.418;13.398;2024-03-22T13:00:57;34.60;;;17.48;;
26951;SDS011;14507;52.418;13.398;2024-03-22T13:03:24;36.38;;;18.52;;
26951;SDS011;14507;52.418;13.398;2024-03-22T13:05:50;37.60;;;19.08;;
26951;SDS011;14507;52.418;13.398;2024-03-22T13:08:16;35.90;;;19.10;;
26951;SDS011;14507;52.418;13.398;2024-03-22T13:10:41;42.67;;;19.98;;
26951;SDS011;14507;52.418;13.398;2024-03-22T13:13:09;35.70;;;18.20;;
26951;SDS011;14507;52.418;13.398;2024-03-22T13:15:35;37.88;;;19.23;;
26951;SDS011;14507;52.418;13.398;2024-03-22T13:18:03;36.35;;;18.77;;
26951;SDS011;14507;52.418;13.398;2024-03-22T13:20:28;38.88;;;19.70;;
26951;SDS011;14507;52.418;13.398;2024-03-22T13:22:54;39.60;;;18.73;;
26951;SDS011;14507;52.418;13.398;2024-03-22T13:25:20;39.55;;;18.38;;
26951;SDS011;14507;52.418;13.398;2024-03-22T13:27:46;42.15;;;19.48;;
26951;SDS011;14507;52.418;13.398;2024-03-22T13:30:12;33.28;;;18.05;;
26951;SDS011;14507;52.418;13.398;2024-03-22T13:32:39;33.42;;;18.05;;
26951;SDS011;14507;52.418;13.398;2024-03-22T13:35:05;37.35;;;18.75;;
26951;SDS011;14507;52.418;13.398;2024-03-22T13:37:31;37.90;;;19.75;;
26951;SDS011;14507;52.418;13.398;2024-03-22T13:42:25;41.72;;;19.48;;
26951;SDS011;14507;52.418;13.398;2024-03-22T13:44:52;36.67;;;18.67;;
26951;SDS011;14507;52.418;13.398;2024-03-22T13:47:17;38.47;;;18.10;;
26951;SDS011;14507;52.418;13.398;2024-03-22T13:49:43;37.08;;;18.83;;
26951;SDS011;14507;52.418;13.398;2024-03-22T13:52:10;31.40;;;15.60;;
26951;SDS011;14507;52.418;13.398;2024-03-22T13:54:36;28.65;;;15.48;;
26951;SDS011;14507;52.418;13.398;2024-03-22T13:57:02;34.03;;;16.83;;
26951;SDS011;14507;52.418;13.398;2024-03-22T13:59:28;35.10;;;16.38;;
26951;SDS011;14507;52.418;13.398;2024-03-22T14:01:54;33.75;;;15.40;;
26951;SDS011;14507;52.418;13.398;2024-03-22T14:04:21;27.08;;;14.55;;
26951;SDS011;14507;52.418;13.398;2024-03-22T14:06:47;32.35;;;15.85;;
26951;SDS011;14507;52.418;13.398;2024-03-22T14:09:13;29.88;;;15.38;;